sensor_id;sensor_type;location;lat;lon;timestamp;P1;durP1;ratioP1;P2;durP2;ratioP2
60908;SDS011;46780;48.128;-1.704;2022-11-21T00:01:18;66.15;;;10.10;;
60908;SDS011;46780;48.128;-1.704;2022-11-21T00:03:46;68.35;;;9.73;;
60908;SDS011;46780;48.128;-1.704;2022-11-21T00:06:12;68.00;;;9.48;;
60908;SDS011;46780;48.128;-1.704;2022-11-21T00:08:39;59.55;;;9.05;;
60908;SDS011;46780;48.128;-1.704;2022-11-21T00:11:07;58.70;;;9.70;;
60908;SDS011;46780;48.128;-1.704;2022-11-21T00:13:34;62.22;;;9.63;;
60908;SDS011;46780;48.128;-1.704;2022-11-21T00:16:04;59.20;;;10.05;;
60908;SDS011;46780;48.128;-1.704;2022-11-21T00:18:31;57.05;;;9.10;;
60908;SDS011;46780;48.128;-1.704;2022-11-21T00:21:02;56.80;;;9.07;;
60908;SDS011;46780;48.128;-1.704;2022-11-21T00:23:29;59.05;;;8.82;;
60908;SDS011;46780;48.128;-1.704;2022-11-21T00:25:55;55.53;;;9.20;;
60908;SDS011;46780;48.128;-1.704;2022-11-21T00:28:23;60.83;;;9.57;;
60908;SDS011;46780;48.128;-1.704;2022-11-21T00:30:50;57.53;;;9.90;;
60908;SDS011;46780;48.128;-1.704;2022-11-21T00:33:16;63.33;;;10.13;;
60908;SDS011;46780;48.128;-1.704;2022-11-21T00:35:43;62.35;;;10.25;;
60908;SDS011;46780;48.128;-1.704;2022-11-21T00:38:09;80.63;;;11.02;;
60908;SDS011;46780;48.128;-1.704;2022-11-21T00:40:35;73.03;;;11.02;;
60908;SDS011;46780;48.128;-1.704;2022-11-21T00:43:02;55.47;;;10.88;;
60908;SDS011;46780;48.128;-1.704;2022-11-21T00:45:30;56.17;;;9.70;;
60908;SDS011;46780;48.128;-1.704;2022-11-21T00:47:56;63.75;;;10.50;;
60908;SDS011;46780;48.128;-1.704;2022-11-21T00:50:23;57.20;;;9.57;;
60908;SDS011;46780;48.128;-1.704;2022-11-21T00:52:53;62.47;;;10.25;;
60908;SDS011;46780;48.128;-1.704;2022-11-21T00:55:19;56.70;;;9.20;;
60908;SDS011;46780;48.128;-1.704;2022-11-21T00:57:46;61.83;;;9.77;;
60908;SDS011;46780;48.128;-1.704;2022-11-21T01:00:12;62.70;;;10.65;;
60908;SDS011;46780;48.128;-1.704;2022-11-21T01:02:41;59.63;;;9.18;;
60908;SDS011;46780;48.128;-1.704;2022-11-21T01:05:07;62.97;;;9.90;;
60908;SDS011;46780;48.128;-1.704;2022-11-21T01:07:34;64.90;;;9.30;;
60908;SDS011;46780;48.128;-1.704;2022-11-21T01:10:01;59.53;;;9.30;;
60908;SDS011;46780;48.128;-1.704;2022-11-21T01:12:27;48.20;;;8.18;;
60908;SDS011;46780;48.128;-1.704;2022-11-21T01:14:54;67.97;;;8.50;;
60908;SDS011;46780;48.128;-1.704;2022-11-21T01:17:20;61.25;;;9.68;;
60908;SDS011;46780;48.128;-1.704;2022-11-21T01:19:48;62.65;;;8.35;;
60908;SDS011;46780;48.128;-1.704;2022-11-21T01:22:15;56.92;;;8.00;;
60908;SDS011;46780;48.128;-1.704;2022-11-21T01:24:41;54.67;;;7.88;;
60908;SDS011;46780;48.128;-1.704;2022-11-21T01:27:08;59.50;;;9.07;;
60908;SDS011;46780;48.128;-1.704;2022-11-21T01:29:34;61.40;;;8.85;;
60908;SDS011;46780;48.128;-1.704;2022-11-21T01:32:01;57.25;;;7.10;;
60908;SDS011;46780;48.128;-1.704;2022-11-21T01:34:27;58.33;;;8.35;;
60908;SDS011;46780;48.128;-1.704;2022-11-21T01:36:55;60.85;;;8.38;;
60908;SDS011;46780;48.128;-1.704;2022-11-21T01:39:21;51.50;;;7.43;;
60908;SDS011;46780;48.128;-1.704;2022-11-21T01:41:48;60.15;;;8.00;;
60908;SDS011;46780;48.128;-1.704;2022-11-21T01:44:16;58.20;;;8.88;;
60908;SDS011;46780;48.128;-1.704;2022-11-21T01:46:45;50.17;;;7.68;;
60908;SDS011;46780;48.128;-1.704;2022-11-21T01:49:12;58.53;;;7.40;;
60908;SDS011;46780;48.128;-1.704;2022-11-21T01:51:43;50.28;;;7.60;;
60908;SDS011;46780;48.128;-1.704;2022-11-21T01:56:42;51.00;;;7.38;;
60908;SDS011;46780;48.128;-1.704;2022-11-21T01:59:14;55.67;;;7.65;;
60908;SDS011;46780;48.128;-1.704;2022-11-21T02:01:44;52.40;;;7.72;;
60908;SDS011;46780;48.128;-1.704;2022-11-21T02:04:12;57.20;;;8.05;;
60908;SDS011;46780;48.128;-1.704;2022-11-21T02:06:39;51.60;;;7.80;;
60908;SDS011;46780;48.128;-1.704;2022-11-21T02:09:06;52.42;;;6.90;;
60908;SDS011;46780;48.128;-1.704;2022-11-21T02:11:36;53.65;;;7.78;;
60908;SDS011;46780;48.128;-1.704;2022-11-21T02:14:05;53.15;;;8.07;;
60908;SDS011;46780;48.128;-1.704;2022-11-21T02:16:32;65.03;;;8.02;;
60908;SDS011;46780;48.128;-1.704;2022-11-21T02:18:59;47.35;;;7.95;;
60908;SDS011;46780;48.128;-1.704;2022-11-21T02:21:30;61.05;;;8.20;;
60908;SDS011;46780;48.128;-1.704;2022-11-21T02:24:06;48.85;;;8.05;;
60908;SDS011;46780;48.128;-1.704;2022-11-21T02:26:40;62.42;;;8.43;;
60908;SDS011;46780;48.128;-1.704;2022-11-21T02:29:07;54.53;;;7.65;;
60908;SDS011;46780;48.128;-1.704;2022-11-21T02:31:34;65.10;;;8.40;;
60908;SDS011;46780;48.128;-1.704;2022-11-21T02:34:00;46.00;;;7.25;;
60908;SDS011;46780;48.128;-1.704;2022-11-21T02:36:38;66.57;;;8.45;;
60908;SDS011;46780;48.128;-1.704;2022-11-21T02:39:07;51.80;;;7.57;;
60908;SDS011;46780;48.128;-1.704;2022-11-21T02:41:41;44.33;;;8.15;;
60908;SDS011;46780;48.128;-1.704;2022-11-21T02:44:12;35.70;;;7.22;;
60908;SDS011;46780;48.128;-1.704;2022-11-21T02:46:45;47.78;;;7.72;;
60908;SDS011;46780;48.128;-1.704;2022-11-21T02:49:13;52.35;;;7.68;;
60908;SDS011;46780;48.128;-1.704;2022-11-21T02:51:45;50.88;;;7.70;;
60908;SDS011;46780;48.128;-1.704;2022-11-21T02:54:13;52.70;;;7.82;;
60908;SDS011;46780;48.128;-1.704;2022-11-21T02:56:41;55.25;;;7.32;;
60908;SDS011;46780;48.128;-1.704;2022-11-21T02:59:07;53.03;;;7.25;;
60908;SDS011;46780;48.128;-1.704;2022-11-21T03:01:34;49.88;;;7.88;;
60908;SDS011;46780;48.128;-1.704;2022-11-21T03:04:00;51.60;;;7.35;;
60908;SDS011;46780;48.128;-1.704;2022-11-21T03:06:26;59.33;;;7.78;;
60908;SDS011;46780;48.128;-1.704;2022-11-21T03:08:53;52.28;;;8.10;;
60908;SDS011;46780;48.128;-1.704;2022-11-21T03:11:19;50.28;;;7.78;;
60908;SDS011;46780;48.128;-1.704;2022-11-21T03:13:47;54.50;;;7.55;;
60908;SDS011;46780;48.128;-1.704;2022-11-21T03:16:13;58.70;;;7.10;;
60908;SDS011;46780;48.128;-1.704;2022-11-21T03:18:40;60.17;;;7.97;;
60908;SDS011;46780;48.128;-1.704;2022-11-21T03:21:06;50.40;;;7.50;;
60908;SDS011;46780;48.128;-1.704;2022-11-21T03:23:33;47.33;;;7.32;;
60908;SDS011;46780;48.128;-1.704;2022-11-21T03:25:59;56.35;;;8.25;;
60908;SDS011;46780;48.128;-1.704;2022-11-21T03:28:26;54.45;;;7.97;;
60908;SDS011;46780;48.128;-1.704;2022-11-21T03:30:53;50.35;;;8.70;;
60908;SDS011;46780;48.128;-1.704;2022-11-21T03:33:20;49.95;;;8.25;;
60908;SDS011;46780;48.128;-1.704;2022-11-21T03:35:46;66.38;;;9.55;;
60908;SDS011;46780;48.128;-1.704;2022-11-21T03:38:13;52.40;;;8.40;;
60908;SDS011;46780;48.128;-1.704;2022-11-21T03:40:39;44.42;;;8.52;;
60908;SDS011;46780;48.128;-1.704;2022-11-21T03:43:06;60.00;;;8.68;;
60908;SDS011;46780;48.128;-1.704;2022-11-21T03:45:32;62.85;;;8.43;;
60908;SDS011;46780;48.128;-1.704;2022-11-21T03:48:00;64.57;;;9.60;;
60908;SDS011;46780;48.128;-1.704;2022-11-21T03:50:26;49.92;;;8.90;;
60908;SDS011;46780;48.128;-1.704;2022-11-21T03:52:53;42.10;;;7.88;;
60908;SDS011;46780;48.128;-1.704;2022-11-21T03:55:19;52.85;;;9.05;;
60908;SDS011;46780;48.128;-1.704;2022-11-21T03:57:46;49.65;;;8.13;;
60908;SDS011;46780;48.128;-1.704;2022-11-21T04:00:13;57.40;;;8.95;;
60908;SDS011;46780;48.128;-1.704;2022-11-21T04:02:40;56.13;;;8.45;;
60908;SDS011;46780;48.128;-1.704;2022-11-21T04:05:08;67.20;;;8.57;;
60908;SDS011;46780;48.128;-1.704;2022-11-21T04:07:35;66.32;;;9.10;;
60908;SDS011;46780;48.128;-1.704;2022-11-21T04:10:01;51.53;;;7.82;;
60908;SDS011;46780;48.128;-1.704;2022-11-21T04:12:28;46.53;;;8.18;;
60908;SDS011;46780;48.128;-1.704;2022-11-21T04:14:54;51.88;;;8.85;;
60908;SDS011;46780;48.128;-1.704;2022-11-21T04:17:21;51.90;;;8.10;;
60908;SDS011;46780;48.128;-1.704;2022-11-21T04:19:47;56.00;;;8.93;;
60908;SDS011;46780;48.128;-1.704;2022-11-21T04:22:15;48.63;;;8.15;;
60908;SDS011;46780;48.128;-1.704;2022-11-21T04:24:41;62.13;;;8.55;;
60908;SDS011;46780;48.128;-1.704;2022-11-21T04:27:08;56.03;;;7.70;;
60908;SDS011;46780;48.128;-1.704;2022-11-21T04:29:34;57.33;;;7.78;;
60908;SDS011;46780;48.128;-1.704;2022-11-21T04:32:01;55.50;;;8.02;;
60908;SDS011;46780;48.128;-1.704;2022-11-21T04:34:27;62.00;;;8.32;;
60908;SDS011;46780;48.128;-1.704;2022-11-21T04:36:54;55.85;;;6.85;;
60908;SDS011;46780;48.128;-1.704;2022-11-21T04:39:21;54.30;;;7.40;;
60908;SDS011;46780;48.128;-1.704;2022-11-21T04:41:48;56.38;;;7.18;;
60908;SDS011;46780;48.128;-1.704;2022-11-21T04:44:15;53.78;;;7.68;;
60908;SDS011;46780;48.128;-1.704;2022-11-21T04:46:42;60.13;;;7.70;;
60908;SDS011;46780;48.128;-1.704;2022-11-21T04:49:08;50.03;;;7.10;;
60908;SDS011;46780;48.128;-1.704;2022-11-21T04:51:34;54.50;;;7.20;;
60908;SDS011;46780;48.128;-1.704;2022-11-21T04:54:01;57.13;;;6.38;;
60908;SDS011;46780;48.128;-1.704;2022-11-21T04:56:29;62.65;;;7.47;;
60908;SDS011;46780;48.128;-1.704;2022-11-21T04:58:55;63.58;;;8.10;;
60908;SDS011;46780;48.128;-1.704;2022-11-21T05:01:21;54.42;;;7.70;;
60908;SDS011;46780;48.128;-1.704;2022-11-21T05:03:48;49.72;;;6.88;;
60908;SDS011;46780;48.128;-1.704;2022-11-21T05:06:14;60.35;;;7.18;;
60908;SDS011;46780;48.128;-1.704;2022-11-21T05:08:41;56.90;;;7.07;;
60908;SDS011;46780;48.128;-1.704;2022-11-21T05:11:07;51.00;;;6.70;;
60908;SDS011;46780;48.128;-1.704;2022-11-21T05:13:35;57.35;;;6.35;;
60908;SDS011;46780;48.128;-1.704;2022-11-21T05:16:02;53.05;;;6.07;;
60908;SDS011;46780;48.128;-1.704;2022-11-21T05:18:28;53.20;;;6.30;;
60908;SDS011;46780;48.128;-1.704;2022-11-21T05:20:55;49.20;;;5.60;;
60908;SDS011;46780;48.128;-1.704;2022-11-21T05:23:22;49.08;;;5.75;;
60908;SDS011;46780;48.128;-1.704;2022-11-21T05:25:48;56.25;;;5.70;;
60908;SDS011;46780;48.128;-1.704;2022-11-21T05:28:14;52.78;;;5.80;;
60908;SDS011;46780;48.128;-1.704;2022-11-21T05:30:42;57.83;;;7.53;;
60908;SDS011;46780;48.128;-1.704;2022-11-21T05:33:09;48.55;;;6.05;;
60908;SDS011;46780;48.128;-1.704;2022-11-21T05:35:35;46.58;;;5.65;;
60908;SDS011;46780;48.128;-1.704;2022-11-21T05:38:02;42.25;;;5.47;;
60908;SDS011;46780;48.128;-1.704;2022-11-21T05:40:28;67.03;;;6.93;;
60908;SDS011;46780;48.128;-1.704;2022-11-21T05:42:54;52.70;;;6.03;;
60908;SDS011;46780;48.128;-1.704;2022-11-21T05:45:21;44.72;;;5.45;;
60908;SDS011;46780;48.128;-1.704;2022-11-21T05:47:49;50.25;;;5.43;;
60908;SDS011;46780;48.128;-1.704;2022-11-21T05:50:15;57.33;;;5.82;;
60908;SDS011;46780;48.128;-1.704;2022-11-21T05:52:42;57.13;;;6.68;;
60908;SDS011;46780;48.128;-1.704;2022-11-21T05:55:08;51.45;;;5.55;;
60908;SDS011;46780;48.128;-1.704;2022-11-21T05:57:35;57.55;;;6.25;;
60908;SDS011;46780;48.128;-1.704;2022-11-21T06:00:02;52.95;;;5.43;;
60908;SDS011;46780;48.128;-1.704;2022-11-21T06:02:29;58.75;;;5.78;;
60908;SDS011;46780;48.128;-1.704;2022-11-21T06:04:56;46.88;;;5.38;;
60908;SDS011;46780;48.128;-1.704;2022-11-21T06:07:23;40.35;;;5.07;;
60908;SDS011;46780;48.128;-1.704;2022-11-21T06:09:49;42.42;;;4.63;;
60908;SDS011;46780;48.128;-1.704;2022-11-21T06:12:17;48.38;;;6.05;;
60908;SDS011;46780;48.128;-1.704;2022-11-21T06:14:43;57.40;;;5.82;;
60908;SDS011;46780;48.128;-1.704;2022-11-21T06:17:10;46.38;;;5.93;;
60908;SDS011;46780;48.128;-1.704;2022-11-21T06:19:37;38.92;;;5.65;;
60908;SDS011;46780;48.128;-1.704;2022-11-21T06:22:04;52.08;;;6.05;;
60908;SDS011;46780;48.128;-1.704;2022-11-21T06:24:31;42.78;;;4.88;;
60908;SDS011;46780;48.128;-1.704;2022-11-21T06:26:57;53.00;;;6.57;;
60908;SDS011;46780;48.128;-1.704;2022-11-21T06:29:24;46.42;;;5.68;;
60908;SDS011;46780;48.128;-1.704;2022-11-21T06:31:50;44.03;;;5.10;;
60908;SDS011;46780;48.128;-1.704;2022-11-21T06:34:17;49.92;;;5.30;;
60908;SDS011;46780;48.128;-1.704;2022-11-21T06:36:43;44.17;;;5.38;;
60908;SDS011;46780;48.128;-1.704;2022-11-21T06:39:11;40.60;;;4.95;;
60908;SDS011;46780;48.128;-1.704;2022-11-21T06:41:37;43.78;;;5.18;;
60908;SDS011;46780;48.128;-1.704;2022-11-21T06:44:04;54.30;;;5.78;;
60908;SDS011;46780;48.128;-1.704;2022-11-21T06:46:30;52.78;;;5.50;;
60908;SDS011;46780;48.128;-1.704;2022-11-21T06:48:57;38.67;;;4.93;;
60908;SDS011;46780;48.128;-1.704;2022-11-21T06:51:23;54.42;;;6.30;;
60908;SDS011;46780;48.128;-1.704;2022-11-21T06:53:51;47.55;;;5.78;;
60908;SDS011;46780;48.128;-1.704;2022-11-21T06:56:20;40.95;;;4.78;;
60908;SDS011;46780;48.128;-1.704;2022-11-21T06:58:46;44.80;;;5.68;;
60908;SDS011;46780;48.128;-1.704;2022-11-21T07:01:13;45.47;;;5.45;;
60908;SDS011;46780;48.128;-1.704;2022-11-21T07:03:39;53.78;;;5.28;;
60908;SDS011;46780;48.128;-1.704;2022-11-21T07:06:06;51.70;;;5.53;;
60908;SDS011;46780;48.128;-1.704;2022-11-21T07:08:33;43.47;;;5.00;;
60908;SDS011;46780;48.128;-1.704;2022-11-21T07:11:00;56.75;;;6.05;;
60908;SDS011;46780;48.128;-1.704;2022-11-21T07:13:29;46.83;;;5.47;;
60908;SDS011;46780;48.128;-1.704;2022-11-21T07:15:59;46.85;;;5.95;;
60908;SDS011;46780;48.128;-1.704;2022-11-21T07:18:27;43.63;;;5.00;;
60908;SDS011;46780;48.128;-1.704;2022-11-21T07:20:56;47.05;;;5.57;;
60908;SDS011;46780;48.128;-1.704;2022-11-21T07:23:22;45.90;;;5.95;;
60908;SDS011;46780;48.128;-1.704;2022-11-21T07:25:49;57.28;;;5.90;;
60908;SDS011;46780;48.128;-1.704;2022-11-21T07:28:15;45.40;;;5.32;;
60908;SDS011;46780;48.128;-1.704;2022-11-21T07:30:43;38.55;;;5.20;;
60908;SDS011;46780;48.128;-1.704;2022-11-21T07:33:10;48.90;;;5.57;;
60908;SDS011;46780;48.128;-1.704;2022-11-21T07:35:36;40.55;;;5.25;;
60908;SDS011;46780;48.128;-1.704;2022-11-21T07:38:03;44.28;;;6.20;;
60908;SDS011;46780;48.128;-1.704;2022-11-21T07:40:29;50.60;;;6.13;;
60908;SDS011;46780;48.128;-1.704;2022-11-21T07:42:59;43.38;;;5.82;;
60908;SDS011;46780;48.128;-1.704;2022-11-21T07:45:26;55.70;;;6.88;;
60908;SDS011;46780;48.128;-1.704;2022-11-21T07:47:57;52.10;;;5.75;;
60908;SDS011;46780;48.128;-1.704;2022-11-21T07:50:24;52.13;;;5.57;;
60908;SDS011;46780;48.128;-1.704;2022-11-21T07:52:50;44.28;;;5.40;;
60908;SDS011;46780;48.128;-1.704;2022-11-21T07:55:21;44.15;;;5.70;;
60908;SDS011;46780;48.128;-1.704;2022-11-21T07:57:47;40.38;;;5.50;;
60908;SDS011;46780;48.128;-1.704;2022-11-21T08:00:22;40.30;;;5.45;;
60908;SDS011;46780;48.128;-1.704;2022-11-21T08:02:49;46.38;;;5.68;;
60908;SDS011;46780;48.128;-1.704;2022-11-21T08:05:17;40.08;;;5.47;;
60908;SDS011;46780;48.128;-1.704;2022-11-21T08:07:43;38.28;;;4.90;;
60908;SDS011;46780;48.128;-1.704;2022-11-21T08:10:10;40.50;;;5.22;;
60908;SDS011;46780;48.128;-1.704;2022-11-21T08:12:36;42.38;;;5.18;;
60908;SDS011;46780;48.128;-1.704;2022-11-21T08:15:03;39.28;;;5.28;;
60908;SDS011;46780;48.128;-1.704;2022-11-21T08:17:30;42.70;;;4.97;;
60908;SDS011;46780;48.128;-1.704;2022-11-21T08:19:57;41.70;;;4.85;;
60908;SDS011;46780;48.128;-1.704;2022-11-21T08:22:25;38.80;;;5.00;;
60908;SDS011;46780;48.128;-1.704;2022-11-21T08:24:51;42.75;;;5.45;;
60908;SDS011;46780;48.128;-1.704;2022-11-21T08:27:18;39.33;;;5.10;;
60908;SDS011;46780;48.128;-1.704;2022-11-21T08:29:44;34.95;;;5.32;;
60908;SDS011;46780;48.128;-1.704;2022-11-21T08:32:11;39.58;;;5.68;;
60908;SDS011;46780;48.128;-1.704;2022-11-21T08:34:37;38.63;;;5.03;;
60908;SDS011;46780;48.128;-1.704;2022-11-21T08:37:04;51.13;;;5.50;;
60908;SDS011;46780;48.128;-1.704;2022-11-21T08:39:32;37.15;;;5.25;;
60908;SDS011;46780;48.128;-1.704;2022-11-21T08:41:58;43.40;;;5.80;;
60908;SDS011;46780;48.128;-1.704;2022-11-21T08:44:25;39.22;;;5.47;;
60908;SDS011;46780;48.128;-1.704;2022-11-21T08:46:51;36.40;;;5.03;;
60908;SDS011;46780;48.128;-1.704;2022-11-21T08:49:18;37.83;;;5.00;;
60908;SDS011;46780;48.128;-1.704;2022-11-21T08:51:45;40.58;;;5.40;;
60908;SDS011;46780;48.128;-1.704;2022-11-21T08:54:11;40.90;;;5.97;;
60908;SDS011;46780;48.128;-1.704;2022-11-21T08:56:39;35.78;;;5.40;;
60908;SDS011;46780;48.128;-1.704;2022-11-21T08:59:05;33.58;;;4.78;;
60908;SDS011;46780;48.128;-1.704;2022-11-21T09:01:32;37.22;;;5.38;;
60908;SDS011;46780;48.128;-1.704;2022-11-21T09:03:58;28.33;;;5.65;;
60908;SDS011;46780;48.128;-1.704;2022-11-21T09:06:25;31.23;;;4.40;;
60908;SDS011;46780;48.128;-1.704;2022-11-21T09:08:51;22.83;;;4.38;;
60908;SDS011;46780;48.128;-1.704;2022-11-21T09:11:18;27.10;;;4.15;;
60908;SDS011;46780;48.128;-1.704;2022-11-21T09:13:45;31.63;;;4.32;;
60908;SDS011;46780;48.128;-1.704;2022-11-21T09:16:12;25.02;;;3.67;;
60908;SDS011;46780;48.128;-1.704;2022-11-21T09:18:38;33.22;;;4.72;;
60908;SDS011;46780;48.128;-1.704;2022-11-21T09:21:05;31.80;;;4.88;;
60908;SDS011;46780;48.128;-1.704;2022-11-21T09:23:31;21.60;;;3.70;;
60908;SDS011;46780;48.128;-1.704;2022-11-21T09:25:58;26.92;;;3.88;;
60908;SDS011;46780;48.128;-1.704;2022-11-21T09:28:25;22.13;;;3.83;;
60908;SDS011;46780;48.128;-1.704;2022-11-21T09:30:53;26.08;;;3.80;;
60908;SDS011;46780;48.128;-1.704;2022-11-21T09:33:19;22.77;;;3.88;;
60908;SDS011;46780;48.128;-1.704;2022-11-21T09:35:46;18.88;;;3.65;;
60908;SDS011;46780;48.128;-1.704;2022-11-21T09:38:12;21.85;;;3.22;;
60908;SDS011;46780;48.128;-1.704;2022-11-21T09:40:40;19.38;;;3.50;;
60908;SDS011;46780;48.128;-1.704;2022-11-21T09:43:13;25.25;;;3.80;;
60908;SDS011;46780;48.128;-1.704;2022-11-21T09:46:05;19.48;;;3.50;;
60908;SDS011;46780;48.128;-1.704;2022-11-21T09:48:38;15.10;;;3.08;;
60908;SDS011;46780;48.128;-1.704;2022-11-21T09:51:10;12.63;;;3.35;;
60908;SDS011;46780;48.128;-1.704;2022-11-21T09:53:44;12.43;;;2.83;;
60908;SDS011;46780;48.128;-1.704;2022-11-21T09:56:18;14.40;;;3.40;;
60908;SDS011;46780;48.128;-1.704;2022-11-21T09:58:48;15.57;;;2.95;;
60908;SDS011;46780;48.128;-1.704;2022-11-21T10:01:29;12.23;;;2.97;;
60908;SDS011;46780;48.128;-1.704;2022-11-21T10:03:56;12.27;;;2.70;;
60908;SDS011;46780;48.128;-1.704;2022-11-21T10:06:25;10.32;;;2.63;;
60908;SDS011;46780;48.128;-1.704;2022-11-21T10:08:54;13.05;;;2.60;;
60908;SDS011;46780;48.128;-1.704;2022-11-21T10:11:30;8.90;;;2.15;;
60908;SDS011;46780;48.128;-1.704;2022-11-21T10:14:06;10.07;;;2.40;;
60908;SDS011;46780;48.128;-1.704;2022-11-21T10:16:46;8.80;;;2.58;;
60908;SDS011;46780;48.128;-1.704;2022-11-21T10:19:19;7.63;;;2.25;;
60908;SDS011;46780;48.128;-1.704;2022-11-21T10:22:13;8.23;;;2.22;;
60908;SDS011;46780;48.128;-1.704;2022-11-21T10:24:52;10.98;;;2.58;;
60908;SDS011;46780;48.128;-1.704;2022-11-21T10:27:22;4.90;;;1.90;;
60908;SDS011;46780;48.128;-1.704;2022-11-21T10:29:56;9.35;;;2.10;;
60908;SDS011;46780;48.128;-1.704;2022-11-21T10:32:29;9.15;;;1.92;;
60908;SDS011;46780;48.128;-1.704;2022-11-21T10:35:01;11.18;;;1.98;;
60908;SDS011;46780;48.128;-1.704;2022-11-21T10:37:37;4.80;;;1.58;;
60908;SDS011;46780;48.128;-1.704;2022-11-21T10:40:12;10.25;;;2.33;;
60908;SDS011;46780;48.128;-1.704;2022-11-21T10:42:49;11.02;;;2.33;;
60908;SDS011;46780;48.128;-1.704;2022-11-21T10:45:18;15.02;;;2.45;;
60908;SDS011;46780;48.128;-1.704;2022-11-21T10:47:46;12.00;;;2.03;;
60908;SDS011;46780;48.128;-1.704;2022-11-21T10:50:17;23.90;;;2.78;;
60908;SDS011;46780;48.128;-1.704;2022-11-21T10:53:02;21.45;;;2.90;;
60908;SDS011;46780;48.128;-1.704;2022-11-21T10:55:35;19.85;;;3.15;;
60908;SDS011;46780;48.128;-1.704;2022-11-21T10:58:27;27.52;;;4.20;;
60908;SDS011;46780;48.128;-1.704;2022-11-21T11:01:00;32.80;;;3.75;;
60908;SDS011;46780;48.128;-1.704;2022-11-21T11:03:28;36.72;;;3.72;;
60908;SDS011;46780;48.128;-1.704;2022-11-21T11:05:56;31.60;;;3.65;;
60908;SDS011;46780;48.128;-1.704;2022-11-21T11:08:23;32.22;;;3.92;;
60908;SDS011;46780;48.128;-1.704;2022-11-21T11:10:59;44.17;;;4.70;;
60908;SDS011;46780;48.128;-1.704;2022-11-21T11:13:27;35.28;;;3.90;;
60908;SDS011;46780;48.128;-1.704;2022-11-21T11:15:58;39.58;;;4.70;;
60908;SDS011;46780;48.128;-1.704;2022-11-21T11:18:29;39.05;;;4.60;;
60908;SDS011;46780;48.128;-1.704;2022-11-21T11:21:08;31.30;;;3.42;;
60908;SDS011;46780;48.128;-1.704;2022-11-21T11:23:39;28.65;;;3.83;;
60908;SDS011;46780;48.128;-1.704;2022-11-21T11:26:16;40.75;;;4.13;;
60908;SDS011;46780;48.128;-1.704;2022-11-21T11:28:45;27.42;;;3.42;;
60908;SDS011;46780;48.128;-1.704;2022-11-21T11:31:12;22.70;;;3.03;;
60908;SDS011;46780;48.128;-1.704;2022-11-21T11:33:42;19.10;;;2.85;;
60908;SDS011;46780;48.128;-1.704;2022-11-21T11:36:17;35.28;;;4.18;;
60908;SDS011;46780;48.128;-1.704;2022-11-21T11:38:58;24.17;;;2.83;;
60908;SDS011;46780;48.128;-1.704;2022-11-21T11:41:31;27.80;;;3.97;;
60908;SDS011;46780;48.128;-1.704;2022-11-21T11:44:14;29.25;;;3.30;;
60908;SDS011;46780;48.128;-1.704;2022-11-21T11:46:50;32.85;;;3.88;;
60908;SDS011;46780;48.128;-1.704;2022-11-21T11:49:29;35.30;;;3.38;;
60908;SDS011;46780;48.128;-1.704;2022-11-21T11:51:59;28.73;;;4.25;;
60908;SDS011;46780;48.128;-1.704;2022-11-21T11:54:28;29.75;;;3.47;;
60908;SDS011;46780;48.128;-1.704;2022-11-21T11:56:59;27.27;;;3.42;;
60908;SDS011;46780;48.128;-1.704;2022-11-21T11:59:26;35.22;;;4.13;;
60908;SDS011;46780;48.128;-1.704;2022-11-21T12:01:56;27.88;;;3.33;;
60908;SDS011;46780;48.128;-1.704;2022-11-21T12:04:28;30.17;;;3.97;;
60908;SDS011;46780;48.128;-1.704;2022-11-21T12:07:03;23.25;;;3.50;;
60908;SDS011;46780;48.128;-1.704;2022-11-21T12:12:03;27.13;;;3.85;;
60908;SDS011;46780;48.128;-1.704;2022-11-21T12:14:36;28.02;;;3.72;;
60908;SDS011;46780;48.128;-1.704;2022-11-21T12:17:11;30.95;;;3.70;;
60908;SDS011;46780;48.128;-1.704;2022-11-21T12:19:43;26.77;;;3.70;;
60908;SDS011;46780;48.128;-1.704;2022-11-21T12:22:09;22.92;;;3.20;;
60908;SDS011;46780;48.128;-1.704;2022-11-21T12:24:36;30.20;;;3.72;;
60908;SDS011;46780;48.128;-1.704;2022-11-21T12:27:04;22.75;;;3.60;;
60908;SDS011;46780;48.128;-1.704;2022-11-21T12:29:45;25.27;;;3.88;;
60908;SDS011;46780;48.128;-1.704;2022-11-21T12:32:27;31.25;;;3.85;;
60908;SDS011;46780;48.128;-1.704;2022-11-21T12:35:17;27.92;;;4.00;;
60908;SDS011;46780;48.128;-1.704;2022-11-21T12:37:55;28.98;;;3.92;;
60908;SDS011;46780;48.128;-1.704;2022-11-21T12:40:33;24.77;;;3.63;;
60908;SDS011;46780;48.128;-1.704;2022-11-21T12:43:13;29.52;;;3.90;;
60908;SDS011;46780;48.128;-1.704;2022-11-21T12:45:49;32.90;;;4.45;;
60908;SDS011;46780;48.128;-1.704;2022-11-21T12:48:20;25.95;;;3.60;;
60908;SDS011;46780;48.128;-1.704;2022-11-21T12:51:08;20.23;;;3.60;;
60908;SDS011;46780;48.128;-1.704;2022-11-21T12:53:46;28.52;;;3.67;;
60908;SDS011;46780;48.128;-1.704;2022-11-21T12:56:21;28.90;;;3.90;;
60908;SDS011;46780;48.128;-1.704;2022-11-21T12:58:55;26.08;;;3.55;;
60908;SDS011;46780;48.128;-1.704;2022-11-21T13:01:24;27.80;;;4.28;;
60908;SDS011;46780;48.128;-1.704;2022-11-21T13:03:57;26.33;;;3.75;;
60908;SDS011;46780;48.128;-1.704;2022-11-21T13:06:28;21.48;;;3.17;;
60908;SDS011;46780;48.128;-1.704;2022-11-21T13:08:59;19.63;;;3.38;;
60908;SDS011;46780;48.128;-1.704;2022-11-21T13:11:29;22.13;;;3.35;;
60908;SDS011;46780;48.128;-1.704;2022-11-21T13:14:05;18.33;;;3.08;;
60908;SDS011;46780;48.128;-1.704;2022-11-21T13:16:37;19.33;;;3.25;;
60908;SDS011;46780;48.128;-1.704;2022-11-21T13:19:15;16.88;;;2.80;;
60908;SDS011;46780;48.128;-1.704;2022-11-21T13:21:49;14.02;;;2.38;;
60908;SDS011;46780;48.128;-1.704;2022-11-21T13:27:25;16.55;;;2.50;;
60908;SDS011;46780;48.128;-1.704;2022-11-21T13:32:42;15.70;;;2.47;;
60908;SDS011;46780;48.128;-1.704;2022-11-21T13:38:10;11.48;;;1.60;;
60908;SDS011;46780;48.128;-1.704;2022-11-21T13:40:37;13.57;;;2.28;;
60908;SDS011;46780;48.128;-1.704;2022-11-21T13:43:12;15.65;;;2.10;;
60908;SDS011;46780;48.128;-1.704;2022-11-21T13:45:48;16.75;;;2.47;;
60908;SDS011;46780;48.128;-1.704;2022-11-21T13:48:17;13.63;;;2.10;;
60908;SDS011;46780;48.128;-1.704;2022-11-21T13:51:00;13.55;;;2.15;;
60908;SDS011;46780;48.128;-1.704;2022-11-21T13:56:35;14.88;;;2.25;;
60908;SDS011;46780;48.128;-1.704;2022-11-21T13:59:09;11.30;;;2.00;;
60908;SDS011;46780;48.128;-1.704;2022-11-21T14:01:58;14.13;;;2.55;;
60908;SDS011;46780;48.128;-1.704;2022-11-21T14:04:48;17.67;;;2.47;;
60908;SDS011;46780;48.128;-1.704;2022-11-21T14:07:25;21.17;;;2.47;;
60908;SDS011;46780;48.128;-1.704;2022-11-21T14:09:55;15.10;;;2.50;;
60908;SDS011;46780;48.128;-1.704;2022-11-21T14:12:26;13.65;;;2.30;;
60908;SDS011;46780;48.128;-1.704;2022-11-21T14:15:06;13.80;;;2.40;;
60908;SDS011;46780;48.128;-1.704;2022-11-21T14:17:42;15.35;;;2.55;;
60908;SDS011;46780;48.128;-1.704;2022-11-21T14:20:14;14.88;;;2.40;;
60908;SDS011;46780;48.128;-1.704;2022-11-21T14:22:45;14.98;;;2.50;;
60908;SDS011;46780;48.128;-1.704;2022-11-21T14:25:19;18.38;;;3.00;;
60908;SDS011;46780;48.128;-1.704;2022-11-21T14:27:49;18.63;;;2.30;;
60908;SDS011;46780;48.128;-1.704;2022-11-21T14:30:28;15.50;;;2.63;;
60908;SDS011;46780;48.128;-1.704;2022-11-21T14:33:24;16.42;;;2.28;;
60908;SDS011;46780;48.128;-1.704;2022-11-21T14:35:53;12.52;;;2.03;;
60908;SDS011;46780;48.128;-1.704;2022-11-21T14:38:22;10.50;;;1.87;;
60908;SDS011;46780;48.128;-1.704;2022-11-21T14:40:50;11.25;;;1.75;;
60908;SDS011;46780;48.128;-1.704;2022-11-21T14:43:36;11.65;;;2.00;;
60908;SDS011;46780;48.128;-1.704;2022-11-21T14:46:02;10.82;;;2.00;;
60908;SDS011;46780;48.128;-1.704;2022-11-21T14:48:29;11.88;;;2.00;;
60908;SDS011;46780;48.128;-1.704;2022-11-21T14:50:57;15.23;;;2.08;;